WBKS

Sandakan Airport

Sandakan, Malaysia
TAF WBKS 221100Z 2212/2312 33008KT 9999 FEW016 PROB30 TEMPO 2220/2300 4000 RA FEW012 FEW016CB SCT030
Issued Valid From Valid To
Jan-22 @ 11:00 UTC
(6 hours ago)
Jan-22 @ 12:00 UTC
(5 hours ago)
Jan-23 @ 12:00 UTC
(in 19 hours)
Jan-22 @ 12:00 to Jan-23 @ 12:00
TAF WBKS 221100Z 2212/2312 33008KT 9999 FEW016
Wind Visibility Clouds
330° at 8 knots 10,000+ meters
  • Few at 1,600' AGL
Temporary  (Probability 30%) Jan-22 @ 20:00 to Jan-23 @ 00:00
PROB30 TEMPO 2220/2300 4000 RA FEW012 FEW016CB SCT030
Visibility Clouds Conditions
4,007 meters
  • Few at 1,200' AGL
  • Few at 1,600' AGL
  • Scattered at 3,000' AGL
  • Rain
TAF WBKS 221100Z 2212/2312 33008KT 9999 FEW016 PROB30 TEMPO 2220/2300 4000 RA FEW012 FEW016CB SCT030
Issued Jan-22 @ 11:00 UTC
(6 hours ago)
Valid From Jan-22 @ 12:00 UTC
(5 hours ago)
Valid To Jan-23 @ 12:00 UTC
(in 19 hours)
Jan-22 @ 12:00 - Jan-23 @ 12:00
Wind Visibility
330° at 8 knots 10,000+ meters
Clouds
  • Few at 1,600' AGL
Probability 30% Temporary Jan-22 @ 20:00 - Jan-23 @ 00:00
Clouds
  • Few at 1,200' AGL
  • Few at 1,600' AGL
  • Scattered at 3,000' AGL
Conditions
  • Rain